sensor_id;sensor_type;location;lat;lon;timestamp;pressure;altitude;pressure_sealevel;temperature;humidity
3796;BME280;1913;50.660;7.834;2023-01-25T00:01:16;98942.78;;;-0.67;nan
3796;BME280;1913;50.660;7.834;2023-01-25T00:03:42;98948.16;;;-0.56;nan
3796;BME280;1913;50.660;7.834;2023-01-25T00:06:07;98940.34;;;-0.40;nan
3796;BME280;1913;50.660;7.834;2023-01-25T00:08:33;98935.91;;;-0.38;nan
3796;BME280;1913;50.660;7.834;2023-01-25T00:10:58;98936.28;;;-0.44;nan
3796;BME280;1913;50.660;7.834;2023-01-25T00:13:24;98936.78;;;-0.54;nan
3796;BME280;1913;50.660;7.834;2023-01-25T00:15:50;98930.34;;;-0.46;nan
3796;BME280;1913;50.660;7.834;2023-01-25T00:18:15;98921.31;;;-0.54;nan
3796;BME280;1913;50.660;7.834;2023-01-25T00:20:41;98920.31;;;-0.51;nan
3796;BME280;1913;50.660;7.834;2023-01-25T00:23:06;98923.06;;;-0.54;nan
3796;BME280;1913;50.660;7.834;2023-01-25T00:25:31;98925.06;;;-0.74;nan
3796;BME280;1913;50.660;7.834;2023-01-25T00:27:57;98921.09;;;-0.65;nan
3796;BME280;1913;50.660;7.834;2023-01-25T00:30:22;98918.91;;;-0.71;nan
3796;BME280;1913;50.660;7.834;2023-01-25T00:33:02;98916.19;;;-0.84;nan
3796;BME280;1913;50.660;7.834;2023-01-25T00:35:30;98914.75;;;-0.74;nan
3796;BME280;1913;50.660;7.834;2023-01-25T00:38:01;98908.72;;;-0.88;nan
3796;BME280;1913;50.660;7.834;2023-01-25T00:40:30;98903.66;;;-0.76;nan
3796;BME280;1913;50.660;7.834;2023-01-25T00:42:55;98905.72;;;-0.66;nan
3796;BME280;1913;50.660;7.834;2023-01-25T00:45:21;98904.50;;;-0.61;nan
3796;BME280;1913;50.660;7.834;2023-01-25T00:47:46;98911.19;;;-0.57;nan
3796;BME280;1913;50.660;7.834;2023-01-25T00:50:12;98906.75;;;-0.55;nan
3796;BME280;1913;50.660;7.834;2023-01-25T00:52:38;98900.19;;;-0.60;nan
3796;BME280;1913;50.660;7.834;2023-01-25T00:55:04;98899.34;;;-0.46;nan
3796;BME280;1913;50.660;7.834;2023-01-25T00:57:29;98898.63;;;-0.49;nan
3796;BME280;1913;50.660;7.834;2023-01-25T00:59:55;98898.19;;;-0.41;nan
3796;BME280;1913;50.660;7.834;2023-01-25T01:02:20;98901.56;;;-0.55;nan
3796;BME280;1913;50.660;7.834;2023-01-25T01:04:46;98898.31;;;-0.73;nan
3796;BME280;1913;50.660;7.834;2023-01-25T01:07:13;98905.44;;;-0.62;nan
3796;BME280;1913;50.660;7.834;2023-01-25T01:09:39;98907.09;;;-0.61;nan
3796;BME280;1913;50.660;7.834;2023-01-25T01:12:04;98907.53;;;-0.68;nan
3796;BME280;1913;50.660;7.834;2023-01-25T01:14:30;98903.03;;;-0.65;nan
3796;BME280;1913;50.660;7.834;2023-01-25T01:16:55;98899.34;;;-0.61;nan
3796;BME280;1913;50.660;7.834;2023-01-25T01:19:21;98894.13;;;-0.45;nan
3796;BME280;1913;50.660;7.834;2023-01-25T01:21:46;98891.25;;;-0.40;nan
3796;BME280;1913;50.660;7.834;2023-01-25T01:24:11;98894.03;;;-0.29;nan
3796;BME280;1913;50.660;7.834;2023-01-25T01:26:37;98896.44;;;-0.26;nan
3796;BME280;1913;50.660;7.834;2023-01-25T01:29:03;98897.72;;;-0.19;nan
3796;BME280;1913;50.660;7.834;2023-01-25T01:31:29;98886.00;;;-0.25;nan
3796;BME280;1913;50.660;7.834;2023-01-25T01:33:56;98887.38;;;-0.33;nan
3796;BME280;1913;50.660;7.834;2023-01-25T01:36:25;98887.50;;;-0.20;nan
3796;BME280;1913;50.660;7.834;2023-01-25T01:38:51;98887.66;;;-0.23;nan
3796;BME280;1913;50.660;7.834;2023-01-25T01:41:17;98885.91;;;-0.23;nan
3796;BME280;1913;50.660;7.834;2023-01-25T01:43:43;98888.13;;;-0.31;nan
3796;BME280;1913;50.660;7.834;2023-01-25T01:46:51;98890.72;;;-0.31;nan
3796;BME280;1913;50.660;7.834;2023-01-25T01:51:39;98893.66;;;-0.23;nan
3796;BME280;1913;50.660;7.834;2023-01-25T01:54:12;98887.03;;;-0.27;nan
3796;BME280;1913;50.660;7.834;2023-01-25T01:59:38;98885.06;;;-0.66;nan
3796;BME280;1913;50.660;7.834;2023-01-25T02:02:06;98889.63;;;-0.86;nan
3796;BME280;1913;50.660;7.834;2023-01-25T02:04:31;98891.66;;;-0.91;nan
3796;BME280;1913;50.660;7.834;2023-01-25T02:07:28;98893.47;;;-0.93;nan
3796;BME280;1913;50.660;7.834;2023-01-25T02:09:55;98884.69;;;-1.05;nan
3796;BME280;1913;50.660;7.834;2023-01-25T02:12:22;98885.34;;;-1.01;nan
3796;BME280;1913;50.660;7.834;2023-01-25T02:14:50;98880.69;;;-0.94;nan
3796;BME280;1913;50.660;7.834;2023-01-25T02:17:19;98879.19;;;-0.99;nan
3796;BME280;1913;50.660;7.834;2023-01-25T02:19:57;98877.25;;;-0.95;nan
3796;BME280;1913;50.660;7.834;2023-01-25T02:22:53;98874.69;;;-0.95;nan
3796;BME280;1913;50.660;7.834;2023-01-25T02:25:20;98881.50;;;-0.94;nan
3796;BME280;1913;50.660;7.834;2023-01-25T02:27:52;98873.84;;;-0.95;nan
3796;BME280;1913;50.660;7.834;2023-01-25T02:30:19;98873.28;;;-1.01;nan
3796;BME280;1913;50.660;7.834;2023-01-25T02:32:45;98875.34;;;-0.91;nan
3796;BME280;1913;50.660;7.834;2023-01-25T02:35:23;98868.03;;;-0.99;nan
3796;BME280;1913;50.660;7.834;2023-01-25T02:37:49;98871.13;;;-1.08;nan
3796;BME280;1913;50.660;7.834;2023-01-25T02:40:16;98874.03;;;-0.99;nan
3796;BME280;1913;50.660;7.834;2023-01-25T02:42:43;98871.66;;;-0.87;nan
3796;BME280;1913;50.660;7.834;2023-01-25T02:45:12;98873.72;;;-0.78;nan
3796;BME280;1913;50.660;7.834;2023-01-25T02:47:39;98882.63;;;-0.84;nan
3796;BME280;1913;50.660;7.834;2023-01-25T02:50:05;98880.22;;;-0.87;nan
3796;BME280;1913;50.660;7.834;2023-01-25T02:52:30;98871.28;;;-0.95;nan
3796;BME280;1913;50.660;7.834;2023-01-25T02:54:56;98861.34;;;-0.87;nan
3796;BME280;1913;50.660;7.834;2023-01-25T02:57:21;98866.22;;;-0.83;nan
3796;BME280;1913;50.660;7.834;2023-01-25T02:59:47;98861.84;;;-0.97;nan
3796;BME280;1913;50.660;7.834;2023-01-25T03:02:13;98854.22;;;-0.98;nan
3796;BME280;1913;50.660;7.834;2023-01-25T03:04:38;98852.72;;;-1.02;nan
3796;BME280;1913;50.660;7.834;2023-01-25T03:07:04;98853.84;;;-1.06;nan
3796;BME280;1913;50.660;7.834;2023-01-25T03:09:29;98856.44;;;-0.92;nan
3796;BME280;1913;50.660;7.834;2023-01-25T03:11:54;98852.94;;;-0.91;nan
3796;BME280;1913;50.660;7.834;2023-01-25T03:14:20;98858.94;;;-0.76;nan
3796;BME280;1913;50.660;7.834;2023-01-25T03:16:45;98856.94;;;-0.71;nan
3796;BME280;1913;50.660;7.834;2023-01-25T03:19:11;98863.28;;;-0.77;nan
3796;BME280;1913;50.660;7.834;2023-01-25T03:21:36;98854.09;;;-0.66;nan
3796;BME280;1913;50.660;7.834;2023-01-25T03:24:04;98852.59;;;-0.85;nan
3796;BME280;1913;50.660;7.834;2023-01-25T03:26:29;98852.47;;;-0.83;nan
3796;BME280;1913;50.660;7.834;2023-01-25T03:28:55;98849.28;;;-0.73;nan
3796;BME280;1913;50.660;7.834;2023-01-25T03:31:21;98858.94;;;-0.76;nan
3796;BME280;1913;50.660;7.834;2023-01-25T03:33:46;98849.34;;;-0.88;nan
3796;BME280;1913;50.660;7.834;2023-01-25T03:36:12;98842.81;;;-0.65;nan
3796;BME280;1913;50.660;7.834;2023-01-25T03:38:41;98837.19;;;-0.58;nan
3796;BME280;1913;50.660;7.834;2023-01-25T03:41:08;98833.13;;;-0.62;nan
3796;BME280;1913;50.660;7.834;2023-01-25T03:43:33;98835.72;;;-0.47;nan
3796;BME280;1913;50.660;7.834;2023-01-25T03:46:00;98832.13;;;-0.74;nan
3796;BME280;1913;50.660;7.834;2023-01-25T03:48:27;98830.66;;;-0.63;nan
3796;BME280;1913;50.660;7.834;2023-01-25T03:50:55;98828.88;;;-0.91;nan
3796;BME280;1913;50.660;7.834;2023-01-25T03:53:22;98823.16;;;-0.82;nan
3796;BME280;1913;50.660;7.834;2023-01-25T03:56:05;98831.00;;;-0.98;nan
3796;BME280;1913;50.660;7.834;2023-01-25T03:58:33;98823.09;;;-0.81;nan
3796;BME280;1913;50.660;7.834;2023-01-25T04:00:59;98818.75;;;-0.66;nan
3796;BME280;1913;50.660;7.834;2023-01-25T04:03:26;98813.59;;;-0.66;nan
3796;BME280;1913;50.660;7.834;2023-01-25T04:05:52;98809.38;;;-0.53;nan
3796;BME280;1913;50.660;7.834;2023-01-25T04:08:18;98814.88;;;-0.73;nan
3796;BME280;1913;50.660;7.834;2023-01-25T04:10:51;98811.28;;;-0.70;nan
3796;BME280;1913;50.660;7.834;2023-01-25T04:13:19;98806.22;;;-0.72;nan
3796;BME280;1913;50.660;7.834;2023-01-25T04:15:44;98806.78;;;-0.67;nan
3796;BME280;1913;50.660;7.834;2023-01-25T04:18:11;98794.41;;;-0.76;nan
3796;BME280;1913;50.660;7.834;2023-01-25T04:20:36;98803.81;;;-0.75;nan
3796;BME280;1913;50.660;7.834;2023-01-25T04:23:02;98801.88;;;-0.86;nan
3796;BME280;1913;50.660;7.834;2023-01-25T04:25:27;98795.81;;;-0.70;nan
3796;BME280;1913;50.660;7.834;2023-01-25T04:27:53;98798.94;;;-0.65;nan
3796;BME280;1913;50.660;7.834;2023-01-25T04:30:18;98799.41;;;-0.59;nan
3796;BME280;1913;50.660;7.834;2023-01-25T04:32:44;98792.19;;;-0.68;nan
3796;BME280;1913;50.660;7.834;2023-01-25T04:35:10;98800.69;;;-0.52;nan
3796;BME280;1913;50.660;7.834;2023-01-25T04:37:35;98803.63;;;-0.58;nan
3796;BME280;1913;50.660;7.834;2023-01-25T04:40:01;98798.56;;;-0.59;nan
3796;BME280;1913;50.660;7.834;2023-01-25T04:42:26;98791.00;;;-0.62;nan
3796;BME280;1913;50.660;7.834;2023-01-25T04:44:51;98786.03;;;-0.80;nan
3796;BME280;1913;50.660;7.834;2023-01-25T04:47:17;98792.19;;;-0.68;nan
3796;BME280;1913;50.660;7.834;2023-01-25T04:49:42;98792.94;;;-0.66;nan
3796;BME280;1913;50.660;7.834;2023-01-25T04:52:08;98786.84;;;-0.79;nan
3796;BME280;1913;50.660;7.834;2023-01-25T04:54:34;98782.44;;;-0.63;nan
3796;BME280;1913;50.660;7.834;2023-01-25T04:56:59;98777.34;;;-0.64;nan
3796;BME280;1913;50.660;7.834;2023-01-25T04:59:24;98780.78;;;-0.64;nan
3796;BME280;1913;50.660;7.834;2023-01-25T05:01:50;98784.44;;;-0.68;nan
3796;BME280;1913;50.660;7.834;2023-01-25T05:04:15;98777.97;;;-1.04;nan
3796;BME280;1913;50.660;7.834;2023-01-25T05:06:41;98784.81;;;-1.03;nan
3796;BME280;1913;50.660;7.834;2023-01-25T05:09:06;98781.59;;;-1.06;nan
3796;BME280;1913;50.660;7.834;2023-01-25T05:11:31;98777.72;;;-0.99;nan
3796;BME280;1913;50.660;7.834;2023-01-25T05:13:57;98776.44;;;-0.92;nan
3796;BME280;1913;50.660;7.834;2023-01-25T05:16:22;98781.88;;;-0.82;nan
3796;BME280;1913;50.660;7.834;2023-01-25T05:18:48;98775.88;;;-0.83;nan
3796;BME280;1913;50.660;7.834;2023-01-25T05:21:13;98769.25;;;-1.01;nan
3796;BME280;1913;50.660;7.834;2023-01-25T05:23:57;98764.84;;;-0.85;nan
3796;BME280;1913;50.660;7.834;2023-01-25T05:26:23;98760.69;;;-0.87;nan
3796;BME280;1913;50.660;7.834;2023-01-25T05:29:08;98758.56;;;-0.81;nan
3796;BME280;1913;50.660;7.834;2023-01-25T05:31:33;98753.09;;;-0.76;nan
3796;BME280;1913;50.660;7.834;2023-01-25T05:33:59;98752.28;;;-0.77;nan
3796;BME280;1913;50.660;7.834;2023-01-25T05:36:24;98751.91;;;-0.70;nan
3796;BME280;1913;50.660;7.834;2023-01-25T05:38:50;98745.38;;;-0.76;nan
3796;BME280;1913;50.660;7.834;2023-01-25T05:41:17;98753.84;;;-0.74;nan
3796;BME280;1913;50.660;7.834;2023-01-25T05:43:42;98753.69;;;-1.00;nan
3796;BME280;1913;50.660;7.834;2023-01-25T05:46:08;98761.41;;;-1.00;nan
3796;BME280;1913;50.660;7.834;2023-01-25T05:48:33;98759.72;;;-1.15;nan
3796;BME280;1913;50.660;7.834;2023-01-25T05:50:59;98756.63;;;-0.91;nan
3796;BME280;1913;50.660;7.834;2023-01-25T05:53:27;98759.19;;;-0.91;nan
3796;BME280;1913;50.660;7.834;2023-01-25T05:55:53;98757.72;;;-0.95;nan
3796;BME280;1913;50.660;7.834;2023-01-25T05:58:19;98754.50;;;-1.13;nan
3796;BME280;1913;50.660;7.834;2023-01-25T06:00:44;98744.81;;;-1.24;nan
3796;BME280;1913;50.660;7.834;2023-01-25T06:03:10;98752.63;;;-1.26;nan
3796;BME280;1913;50.660;7.834;2023-01-25T06:05:35;98746.63;;;-1.26;nan
3796;BME280;1913;50.660;7.834;2023-01-25T06:08:00;98744.16;;;-1.28;nan
3796;BME280;1913;50.660;7.834;2023-01-25T06:10:26;98736.78;;;-1.34;nan
3796;BME280;1913;50.660;7.834;2023-01-25T06:12:57;98742.56;;;-1.45;nan
3796;BME280;1913;50.660;7.834;2023-01-25T06:15:23;98746.28;;;-1.20;nan
3796;BME280;1913;50.660;7.834;2023-01-25T06:17:53;98747.00;;;-1.04;nan
3796;BME280;1913;50.660;7.834;2023-01-25T06:20:19;98742.97;;;-0.93;nan
3796;BME280;1913;50.660;7.834;2023-01-25T06:22:51;98743.53;;;-0.88;nan
3796;BME280;1913;50.660;7.834;2023-01-25T06:25:17;98738.19;;;-0.85;nan
3796;BME280;1913;50.660;7.834;2023-01-25T06:27:43;98738.44;;;-0.76;nan
3796;BME280;1913;50.660;7.834;2023-01-25T06:30:09;98738.38;;;-0.74;nan
3796;BME280;1913;50.660;7.834;2023-01-25T06:32:34;98731.94;;;-0.81;nan
3796;BME280;1913;50.660;7.834;2023-01-25T06:35:00;98737.09;;;-0.81;nan
3796;BME280;1913;50.660;7.834;2023-01-25T06:37:25;98739.72;;;-0.68;nan
3796;BME280;1913;50.660;7.834;2023-01-25T06:39:51;98732.47;;;-0.76;nan
3796;BME280;1913;50.660;7.834;2023-01-25T06:42:17;98740.84;;;-0.73;nan
3796;BME280;1913;50.660;7.834;2023-01-25T06:44:43;98733.94;;;-0.72;nan
3796;BME280;1913;50.660;7.834;2023-01-25T06:47:08;98735.03;;;-0.76;nan
3796;BME280;1913;50.660;7.834;2023-01-25T06:49:33;98729.16;;;-0.78;nan
3796;BME280;1913;50.660;7.834;2023-01-25T06:51:59;98730.81;;;-0.77;nan
3796;BME280;1913;50.660;7.834;2023-01-25T06:54:26;98733.69;;;-0.96;nan
3796;BME280;1913;50.660;7.834;2023-01-25T06:56:51;98729.81;;;-1.03;nan
3796;BME280;1913;50.660;7.834;2023-01-25T06:59:16;98729.06;;;-1.05;nan
3796;BME280;1913;50.660;7.834;2023-01-25T07:01:42;98730.16;;;-1.09;nan
3796;BME280;1913;50.660;7.834;2023-01-25T07:04:09;98726.00;;;-1.12;nan
3796;BME280;1913;50.660;7.834;2023-01-25T07:06:36;98724.66;;;-1.03;nan
3796;BME280;1913;50.660;7.834;2023-01-25T07:09:12;98723.38;;;-0.96;nan
3796;BME280;1913;50.660;7.834;2023-01-25T07:11:38;98734.03;;;-0.88;nan
3796;BME280;1913;50.660;7.834;2023-01-25T07:14:04;98732.38;;;-1.03;nan
3796;BME280;1913;50.660;7.834;2023-01-25T07:16:30;98725.91;;;-1.25;nan
3796;BME280;1913;50.660;7.834;2023-01-25T07:19:05;98727.13;;;-1.02;nan
3796;BME280;1913;50.660;7.834;2023-01-25T07:21:31;98728.41;;;-0.94;nan
3796;BME280;1913;50.660;7.834;2023-01-25T07:23:59;98723.78;;;-0.89;nan
3796;BME280;1913;50.660;7.834;2023-01-25T07:26:28;98725.66;;;-0.91;nan
3796;BME280;1913;50.660;7.834;2023-01-25T07:28:56;98725.66;;;-0.91;nan
3796;BME280;1913;50.660;7.834;2023-01-25T07:31:22;98722.91;;;-1.03;nan
3796;BME280;1913;50.660;7.834;2023-01-25T07:33:48;98730.81;;;-1.20;nan
3796;BME280;1913;50.660;7.834;2023-01-25T07:36:14;98726.56;;;-1.07;nan
3796;BME280;1913;50.660;7.834;2023-01-25T07:38:39;98722.97;;;-0.90;nan
3796;BME280;1913;50.660;7.834;2023-01-25T07:41:05;98728.06;;;-1.03;nan
3796;BME280;1913;50.660;7.834;2023-01-25T07:43:31;98723.53;;;-0.85;nan
3796;BME280;1913;50.660;7.834;2023-01-25T07:46:06;98726.38;;;-0.75;nan
3796;BME280;1913;50.660;7.834;2023-01-25T07:48:32;98731.28;;;-0.70;nan
3796;BME280;1913;50.660;7.834;2023-01-25T07:51:03;98727.66;;;-0.82;nan
3796;BME280;1913;50.660;7.834;2023-01-25T07:54:00;98731.00;;;-0.94;nan
3796;BME280;1913;50.660;7.834;2023-01-25T07:58:56;98732.81;;;-0.97;nan
3796;BME280;1913;50.660;7.834;2023-01-25T08:01:24;98732.38;;;-0.89;nan
3796;BME280;1913;50.660;7.834;2023-01-25T08:03:50;98729.22;;;-0.80;nan
3796;BME280;1913;50.660;7.834;2023-01-25T08:06:17;98730.25;;;-0.97;nan
3796;BME280;1913;50.660;7.834;2023-01-25T08:08:47;98730.53;;;-0.73;nan
3796;BME280;1913;50.660;7.834;2023-01-25T08:11:21;98723.72;;;-0.88;nan
3796;BME280;1913;50.660;7.834;2023-01-25T08:13:47;98728.53;;;-0.96;nan
3796;BME280;1913;50.660;7.834;2023-01-25T08:16:26;98727.66;;;-0.68;nan
3796;BME280;1913;50.660;7.834;2023-01-25T08:18:54;98736.31;;;-0.55;nan
3796;BME280;1913;50.660;7.834;2023-01-25T08:21:20;98729.19;;;-0.51;nan
3796;BME280;1913;50.660;7.834;2023-01-25T08:23:45;98730.13;;;-0.52;nan
3796;BME280;1913;50.660;7.834;2023-01-25T08:26:13;98737.59;;;-0.62;nan
3796;BME280;1913;50.660;7.834;2023-01-25T08:28:39;98736.69;;;-0.89;nan
3796;BME280;1913;50.660;7.834;2023-01-25T08:31:11;98736.50;;;-0.72;nan
3796;BME280;1913;50.660;7.834;2023-01-25T08:33:37;98728.94;;;-0.75;nan
3796;BME280;1913;50.660;7.834;2023-01-25T08:36:04;98731.09;;;-0.67;nan
3796;BME280;1913;50.660;7.834;2023-01-25T08:38:30;98728.50;;;-0.67;nan
3796;BME280;1913;50.660;7.834;2023-01-25T08:41:04;98723.34;;;-0.67;nan
3796;BME280;1913;50.660;7.834;2023-01-25T08:43:29;98721.50;;;-0.80;nan
3796;BME280;1913;50.660;7.834;2023-01-25T08:45:56;98725.44;;;-0.60;nan
3796;BME280;1913;50.660;7.834;2023-01-25T08:48:22;98716.25;;;-0.64;nan
3796;BME280;1913;50.660;7.834;2023-01-25T08:50:47;98721.66;;;-0.68;nan
3796;BME280;1913;50.660;7.834;2023-01-25T08:53:13;98719.53;;;-0.62;nan
3796;BME280;1913;50.660;7.834;2023-01-25T08:55:39;98717.13;;;-0.51;nan
3796;BME280;1913;50.660;7.834;2023-01-25T08:58:09;98710.56;;;-0.42;nan
3796;BME280;1913;50.660;7.834;2023-01-25T09:00:38;98708.63;;;-0.38;nan
3796;BME280;1913;50.660;7.834;2023-01-25T09:03:03;98705.88;;;-0.22;nan
3796;BME280;1913;50.660;7.834;2023-01-25T09:05:29;98705.19;;;-0.12;nan
3796;BME280;1913;50.660;7.834;2023-01-25T09:07:54;98703.94;;;-0.19;nan
3796;BME280;1913;50.660;7.834;2023-01-25T09:10:20;98700.53;;;-0.19;nan
3796;BME280;1913;50.660;7.834;2023-01-25T09:12:45;98697.13;;;-0.07;nan
3796;BME280;1913;50.660;7.834;2023-01-25T09:15:11;98697.19;;;0.06;nan
3796;BME280;1913;50.660;7.834;2023-01-25T09:17:36;98699.72;;;0.20;nan
3796;BME280;1913;50.660;7.834;2023-01-25T09:20:06;98696.53;;;0.29;nan
3796;BME280;1913;50.660;7.834;2023-01-25T09:22:31;98700.56;;;0.33;nan
3796;BME280;1913;50.660;7.834;2023-01-25T09:24:57;98692.63;;;0.36;nan
3796;BME280;1913;50.660;7.834;2023-01-25T09:27:22;98699.63;;;0.34;nan
3796;BME280;1913;50.660;7.834;2023-01-25T09:29:47;98692.97;;;0.17;nan
3796;BME280;1913;50.660;7.834;2023-01-25T09:32:13;98686.84;;;0.06;nan
3796;BME280;1913;50.660;7.834;2023-01-25T09:34:38;98690.25;;;0.06;nan
3796;BME280;1913;50.660;7.834;2023-01-25T09:37:04;98696.34;;;0.32;nan
3796;BME280;1913;50.660;7.834;2023-01-25T09:39:29;98694.78;;;0.42;nan
3796;BME280;1913;50.660;7.834;2023-01-25T09:47:29;98686.91;;;0.31;nan
3796;BME280;1913;50.660;7.834;2023-01-25T09:52:45;98680.81;;;0.32;nan
3796;BME280;1913;50.660;7.834;2023-01-25T09:55:20;98678.78;;;0.10;nan
3796;BME280;1913;50.660;7.834;2023-01-25T09:57:48;98674.06;;;0.17;nan
3796;BME280;1913;50.660;7.834;2023-01-25T10:00:30;98672.94;;;0.34;nan
3796;BME280;1913;50.660;7.834;2023-01-25T10:03:40;98669.13;;;0.52;nan
3796;BME280;1913;50.660;7.834;2023-01-25T10:06:09;98663.56;;;0.58;nan
3796;BME280;1913;50.660;7.834;2023-01-25T10:11:29;98658.34;;;0.71;nan
3796;BME280;1913;50.660;7.834;2023-01-25T10:13:57;98658.38;;;0.58;nan
3796;BME280;1913;50.660;7.834;2023-01-25T10:19:24;98645.53;;;0.57;nan
3796;BME280;1913;50.660;7.834;2023-01-25T10:26:54;98630.44;;;0.51;nan
3796;BME280;1913;50.660;7.834;2023-01-25T10:29:24;98635.56;;;1.02;nan
3796;BME280;1913;50.660;7.834;2023-01-25T10:31:53;98631.38;;;0.75;nan
3796;BME280;1913;50.660;7.834;2023-01-25T10:36:54;98625.66;;;0.83;nan
3796;BME280;1913;50.660;7.834;2023-01-25T10:39:20;98631.06;;;0.54;nan
3796;BME280;1913;50.660;7.834;2023-01-25T10:41:50;98622.97;;;0.20;nan
3796;BME280;1913;50.660;7.834;2023-01-25T10:44:20;98620.91;;;0.00;nan
3796;BME280;1913;50.660;7.834;2023-01-25T10:47:14;98622.19;;;-0.20;nan
3796;BME280;1913;50.660;7.834;2023-01-25T10:49:51;98607.00;;;-0.25;nan
3796;BME280;1913;50.660;7.834;2023-01-25T10:52:25;98607.78;;;0.16;nan
3796;BME280;1913;50.660;7.834;2023-01-25T10:55:15;98600.53;;;0.59;nan
3796;BME280;1913;50.660;7.834;2023-01-25T10:57:47;98594.34;;;0.23;nan
3796;BME280;1913;50.660;7.834;2023-01-25T11:00:34;98598.38;;;0.15;nan
3796;BME280;1913;50.660;7.834;2023-01-25T11:03:00;98588.53;;;-0.06;nan
3796;BME280;1913;50.660;7.834;2023-01-25T11:05:35;98587.19;;;0.02;nan
3796;BME280;1913;50.660;7.834;2023-01-25T11:08:24;98588.75;;;0.42;nan
3796;BME280;1913;50.660;7.834;2023-01-25T11:10:51;98588.00;;;0.79;nan
3796;BME280;1913;50.660;7.834;2023-01-25T11:13:19;98577.56;;;1.04;nan
3796;BME280;1913;50.660;7.834;2023-01-25T11:16:13;98573.84;;;1.32;nan
3796;BME280;1913;50.660;7.834;2023-01-25T11:18:33;98576.28;;;1.47;nan
3796;BME280;1913;50.660;7.834;2023-01-25T11:21:14;98573.31;;;1.75;nan
3796;BME280;1913;50.660;7.834;2023-01-25T11:23:43;98565.94;;;1.93;nan
3796;BME280;1913;50.660;7.834;2023-01-25T11:26:21;98563.97;;;2.08;nan
3796;BME280;1913;50.660;7.834;2023-01-25T11:28:47;98567.66;;;2.28;nan
3796;BME280;1913;50.660;7.834;2023-01-25T11:31:19;98557.53;;;2.25;nan
3796;BME280;1913;50.660;7.834;2023-01-25T11:33:46;98559.31;;;2.35;nan
3796;BME280;1913;50.660;7.834;2023-01-25T11:36:16;98552.78;;;2.07;nan
3796;BME280;1913;50.660;7.834;2023-01-25T12:12:01;98495.03;;;1.48;nan
3796;BME280;1913;50.660;7.834;2023-01-25T12:14:41;98491.88;;;1.31;nan
3796;BME280;1913;50.660;7.834;2023-01-25T12:25:44;98458.13;;;1.90;nan
3796;BME280;1913;50.660;7.834;2023-01-25T12:31:00;98445.38;;;1.76;nan
3796;BME280;1913;50.660;7.834;2023-01-25T12:33:44;98435.81;;;1.65;nan
3796;BME280;1913;50.660;7.834;2023-01-25T12:36:22;98429.72;;;1.89;nan
3796;BME280;1913;50.660;7.834;2023-01-25T12:39:04;98418.78;;;1.85;nan
3796;BME280;1913;50.660;7.834;2023-01-25T12:49:46;98399.56;;;1.08;nan
3796;BME280;1913;50.660;7.834;2023-01-25T12:52:34;98393.59;;;1.18;nan
3796;BME280;1913;50.660;7.834;2023-01-25T12:55:04;98394.44;;;1.41;nan
3796;BME280;1913;50.660;7.834;2023-01-25T12:57:38;98393.03;;;1.37;nan
3796;BME280;1913;50.660;7.834;2023-01-25T13:02:59;98379.63;;;1.66;nan
3796;BME280;1913;50.660;7.834;2023-01-25T13:05:34;98374.09;;;1.71;nan
3796;BME280;1913;50.660;7.834;2023-01-25T13:08:16;98378.56;;;1.91;nan
3796;BME280;1913;50.660;7.834;2023-01-25T13:10:51;98371.75;;;1.90;nan
3796;BME280;1913;50.660;7.834;2023-01-25T13:15:47;98365.38;;;1.94;nan
3796;BME280;1913;50.660;7.834;2023-01-25T13:20:55;98356.44;;;1.87;nan
3796;BME280;1913;50.660;7.834;2023-01-25T13:23:40;98353.72;;;1.77;nan
3796;BME280;1913;50.660;7.834;2023-01-25T13:28:48;98330.84;;;1.26;nan
3796;BME280;1913;50.660;7.834;2023-01-25T13:42:16;98326.88;;;1.44;nan
3796;BME280;1913;50.660;7.834;2023-01-25T13:44:45;98319.59;;;1.50;nan
3796;BME280;1913;50.660;7.834;2023-01-25T13:47:14;98320.28;;;1.40;nan
3796;BME280;1913;50.660;7.834;2023-01-25T13:52:18;98313.53;;;1.15;nan
3796;BME280;1913;50.660;7.834;2023-01-25T13:54:46;98302.88;;;0.85;nan
3796;BME280;1913;50.660;7.834;2023-01-25T13:57:20;98287.91;;;0.66;nan
3796;BME280;1913;50.660;7.834;2023-01-25T13:59:46;98285.25;;;0.90;nan
3796;BME280;1913;50.660;7.834;2023-01-25T14:02:19;98285.03;;;0.93;nan
3796;BME280;1913;50.660;7.834;2023-01-25T14:04:48;98280.59;;;1.17;nan
3796;BME280;1913;50.660;7.834;2023-01-25T14:07:16;98277.16;;;1.06;nan
3796;BME280;1913;50.660;7.834;2023-01-25T14:09:45;98277.75;;;0.98;nan
3796;BME280;1913;50.660;7.834;2023-01-25T14:12:32;98270.19;;;0.84;nan
3796;BME280;1913;50.660;7.834;2023-01-25T14:15:24;98272.34;;;1.01;nan
3796;BME280;1913;50.660;7.834;2023-01-25T14:20:30;98263.69;;;0.67;nan
3796;BME280;1913;50.660;7.834;2023-01-25T14:22:56;98256.81;;;0.43;nan
3796;BME280;1913;50.660;7.834;2023-01-25T14:25:21;98256.97;;;0.29;nan
3796;BME280;1913;50.660;7.834;2023-01-25T14:27:53;98257.03;;;0.16;nan
3796;BME280;1913;50.660;7.834;2023-01-25T14:32:45;98255.44;;;0.27;nan
3796;BME280;1913;50.660;7.834;2023-01-25T14:37:51;98245.69;;;0.30;nan
3796;BME280;1913;50.660;7.834;2023-01-25T14:40:22;98239.38;;;0.34;nan
3796;BME280;1913;50.660;7.834;2023-01-25T14:42:50;98243.28;;;0.40;nan
3796;BME280;1913;50.660;7.834;2023-01-25T14:45:17;98239.38;;;0.34;nan
3796;BME280;1913;50.660;7.834;2023-01-25T14:47:43;98245.28;;;0.47;nan
3796;BME280;1913;50.660;7.834;2023-01-25T14:52:57;98238.38;;;0.59;nan
3796;BME280;1913;50.660;7.834;2023-01-25T14:55:24;98239.47;;;0.68;nan
3796;BME280;1913;50.660;7.834;2023-01-25T14:57:50;98231.47;;;0.71;nan
3796;BME280;1913;50.660;7.834;2023-01-25T15:02:48;98241.13;;;0.69;nan
3796;BME280;1913;50.660;7.834;2023-01-25T15:05:24;98236.97;;;0.55;nan
3796;BME280;1913;50.660;7.834;2023-01-25T15:10:56;98229.94;;;0.57;nan
3796;BME280;1913;50.660;7.834;2023-01-25T15:13:25;98230.03;;;0.56;nan
3796;BME280;1913;50.660;7.834;2023-01-25T15:16:00;98225.69;;;0.67;nan
3796;BME280;1913;50.660;7.834;2023-01-25T15:18:51;98223.69;;;0.60;nan
3796;BME280;1913;50.660;7.834;2023-01-25T15:21:29;98219.91;;;0.64;nan
3796;BME280;1913;50.660;7.834;2023-01-25T15:23:57;98216.50;;;0.63;nan
3796;BME280;1913;50.660;7.834;2023-01-25T15:28:50;98208.91;;;0.27;nan
3796;BME280;1913;50.660;7.834;2023-01-25T15:31:18;98192.00;;;0.34;nan
3796;BME280;1913;50.660;7.834;2023-01-25T15:33:45;98190.75;;;0.39;nan
3796;BME280;1913;50.660;7.834;2023-01-25T15:36:12;98188.25;;;0.38;nan
3796;BME280;1913;50.660;7.834;2023-01-25T15:38:39;98190.69;;;0.28;nan
3796;BME280;1913;50.660;7.834;2023-01-25T15:41:05;98187.50;;;0.24;nan
3796;BME280;1913;50.660;7.834;2023-01-25T15:43:31;98188.59;;;0.33;nan
3796;BME280;1913;50.660;7.834;2023-01-25T15:45:57;98181.91;;;0.07;nan
3796;BME280;1913;50.660;7.834;2023-01-25T15:48:32;98178.91;;;-0.11;nan
3796;BME280;1913;50.660;7.834;2023-01-25T15:50:59;98182.81;;;-0.06;nan
3796;BME280;1913;50.660;7.834;2023-01-25T15:53:24;98183.91;;;0.03;nan
3796;BME280;1913;50.660;7.834;2023-01-25T15:55:54;98189.84;;;-0.08;nan
3796;BME280;1913;50.660;7.834;2023-01-25T15:58:43;98182.38;;;0.01;nan
3796;BME280;1913;50.660;7.834;2023-01-25T16:01:09;98173.44;;;-0.07;nan
3796;BME280;1913;50.660;7.834;2023-01-25T16:03:35;98182.88;;;-0.18;nan